createdAt,value
2017-11-06T00:00:05.086Z,5.5
2017-11-06T00:15:02.674Z,5.5
2017-11-06T00:30:04.841Z,5.5
2017-11-06T00:45:03.216Z,5.4
2017-11-06T01:00:04.608Z,5.5
2017-11-06T01:15:03.197Z,5.4
2017-11-06T01:30:02.914Z,5.5
2017-11-06T01:45:03.445Z,5.4
2017-11-06T02:00:03.178Z,5.4
2017-11-06T02:15:03.451Z,5.3
2017-11-06T02:30:03.110Z,5.2
2017-11-06T02:45:05.169Z,5.2
2017-11-06T03:00:05.491Z,5
2017-11-06T03:15:04.486Z,4.8
2017-11-06T03:30:06.359Z,4.6
2017-11-06T03:45:03.124Z,4.4
2017-11-06T04:00:02.925Z,4.3
2017-11-06T04:15:02.642Z,4.2
2017-11-06T04:30:03.318Z,4.2
2017-11-06T04:45:02.925Z,4.3
2017-11-06T05:00:02.779Z,4.3
2017-11-06T05:15:03.468Z,4.4
2017-11-06T05:30:03.850Z,4.3
2017-11-06T05:45:03.312Z,4.3
2017-11-06T06:00:03.156Z,4.2
2017-11-06T06:15:02.671Z,4.2
2017-11-06T06:30:02.565Z,4.3
2017-11-06T06:45:03.814Z,4.4
2017-11-06T07:00:05.568Z,4.5
2017-11-06T07:15:03.131Z,4.5
2017-11-06T07:30:03.216Z,4.5
2017-11-06T07:45:02.751Z,4.6
2017-11-06T08:00:03.422Z,4.8
2017-11-06T08:15:02.988Z,4.9
2017-11-06T08:30:02.761Z,5.2
2017-11-06T08:45:03.365Z,5.4
2017-11-06T09:00:02.984Z,5.4
2017-11-06T09:15:02.579Z,5.5
2017-11-06T09:30:03.307Z,5.4
2017-11-06T09:45:02.859Z,5.6
2017-11-06T10:00:03.616Z,5.8
2017-11-06T10:15:03.219Z,5.8
2017-11-06T10:30:02.870Z,5.9
2017-11-06T10:45:03.574Z,5.9
2017-11-06T11:00:03.343Z,6
2017-11-06T11:15:02.910Z,6
2017-11-06T11:30:02.554Z,6.1
2017-11-06T11:45:03.155Z,6.2
2017-11-06T12:00:02.783Z,6.1
2017-11-06T12:15:03.400Z,6.3
2017-11-06T12:30:03.033Z,6.3
2017-11-06T12:45:02.666Z,6.2
2017-11-06T13:00:03.358Z,6.2
2017-11-06T13:15:02.983Z,6.3
2017-11-06T13:30:02.800Z,6.2
2017-11-06T13:45:03.386Z,6.2
2017-11-06T14:00:02.979Z,6.1
2017-11-06T14:15:02.580Z,6.1
2017-11-06T14:30:03.265Z,6.1
2017-11-06T14:45:02.877Z,6.2
2017-11-06T15:00:03.609Z,6.1
2017-11-06T15:15:03.215Z,5.9
2017-11-06T15:30:02.847Z,5.9
2017-11-06T15:45:03.469Z,5.9
2017-11-06T16:00:03.150Z,5.9
2017-11-06T16:15:02.703Z,5.8
2017-11-06T16:30:03.379Z,5.8
2017-11-06T16:45:02.970Z,5.8
2017-11-06T17:00:02.533Z,5.7
2017-11-06T17:15:03.140Z,5.7
2017-11-06T17:30:02.839Z,5.6
2017-11-06T17:45:03.415Z,5.6
2017-11-06T18:00:03.012Z,5.6
2017-11-06T18:15:03.008Z,5.6
2017-11-06T18:30:02.653Z,5.5
2017-11-06T18:45:03.289Z,5.4
2017-11-06T19:00:02.858Z,5.4
2017-11-06T19:15:03.443Z,5.2
2017-11-06T19:30:03.155Z,5.2
2017-11-06T19:45:02.701Z,5.2
2017-11-06T20:00:03.328Z,5.1
2017-11-06T20:15:02.970Z,5
2017-11-06T20:30:02.646Z,4.9
2017-11-06T20:45:03.214Z,4.9
2017-11-06T21:00:02.810Z,4.9
2017-11-06T21:15:03.385Z,4.9
2017-11-06T21:30:03.010Z,4.8
2017-11-06T21:45:02.650Z,4.8
2017-11-06T22:00:03.281Z,4.8
2017-11-06T22:15:02.845Z,4.8
2017-11-06T22:30:02.610Z,4.8
2017-11-06T22:45:03.221Z,4.6
2017-11-06T23:00:02.787Z,4.8
2017-11-06T23:15:03.377Z,4.8
2017-11-06T23:30:03.167Z,4.6
2017-11-06T23:45:03.020Z,4.6
